»·PEaware :: N221XG KHHR-KCRQ

N221XG :: KHHR-KCRQ

FLIGHT INFORMATION

Flight Status: Arrived
Operator: Privately registered:
United States
More flights under this callsign
Pilot: Ryan L. (9775)
Aircraft: SOCATA TBM-900
(TBM9)
More flights by this aircraft type
Origin: KHHR Northrop/Hawthorne Mun
United States
Destination: KCRQ McClellan-Palomar
United States
More flights between these airports :: More routes between these airports
Route: +LIMBO V64 WILMA V25 PACIF V208 OCN
File this flight plan on PilotEdge
Remarks: +CW /
Altitude:
(Current/Filed)
9,000ft
Speed:
(Current/Filed)
300kts
Departed: 12-Oct-19 08:52 AM
Arrived: 12-Oct-19 09:29 AM
Distance/Time
Traveled:
71nm/0:37
Distance/Time
To Go:
Arrived

Flight Plot

Page will automatically refresh every two minutes.

Flight plan parsing failed; only flown route is shown


Map Options




Map Legend


Flown Route
Filed Route
Departure Airport
Arrival Airport
Navaid (VOR, NDB)
Fix

Horizontal Profiles

Position Reports

Time Latitude Longitude Heading Altitude Ground
Speed
12-Oct-19 08:27 33.921955 -118.340348 359 68ft 0kts
12-Oct-19 08:28 33.921955 -118.340348 359 68ft 0kts
12-Oct-19 08:30 33.921955 -118.340348 359 68ft 0kts
12-Oct-19 08:31 33.921955 -118.340348 359 68ft 0kts
12-Oct-19 08:32 33.921955 -118.340348 359 68ft 0kts
12-Oct-19 08:33 33.921955 -118.340348 359 68ft 0kts
12-Oct-19 08:34 33.921955 -118.340348 359 68ft 0kts
12-Oct-19 08:35 33.921955 -118.340348 359 68ft 0kts
12-Oct-19 08:36 33.921955 -118.340348 359 68ft 0kts
12-Oct-19 08:37 33.921955 -118.340348 359 68ft 0kts
12-Oct-19 08:38 33.921955 -118.340348 359 68ft 0kts
12-Oct-19 08:39 33.921955 -118.340348 359 68ft 0kts
12-Oct-19 08:40 33.921955 -118.340348 359 68ft 0kts
12-Oct-19 08:41 33.922307 -118.337553 86 68ft 15kts
12-Oct-19 08:42 33.922557 -118.332907 86 68ft 13kts
12-Oct-19 08:43 33.922763 -118.327673 87 68ft 13kts
12-Oct-19 08:44 33.922904 -118.327192 8 68ft 0kts
12-Oct-19 08:45 33.922905 -118.327192 8 68ft 0kts
12-Oct-19 08:46 33.922905 -118.327192 8 68ft 0kts
12-Oct-19 08:47 33.922905 -118.327192 8 68ft 0kts
12-Oct-19 08:47 33.922905 -118.327192 8 68ft 0kts
12-Oct-19 08:49 33.922905 -118.327192 8 68ft 0kts
12-Oct-19 08:50 33.923044 -118.327187 356 68ft 2kts
12-Oct-19 08:50 33.923218 -118.327662 267 68ft 26kts
12-Oct-19 08:52 33.913911 -118.363625 227 1845ft 129kts
12-Oct-19 08:53 33.881512 -118.386896 172 3705ft 146kts
12-Oct-19 08:53 33.848628 -118.382249 172 5271ft 160kts
12-Oct-19 08:54 33.805947 -118.366627 119 7260ft 171kts
12-Oct-19 08:56 33.780300 -118.304892 104 9024ft 201kts
12-Oct-19 08:56 33.761240 -118.248987 138 9023ft 234kts
12-Oct-19 08:57 33.710158 -118.194771 139 9004ft 253kts
12-Oct-19 08:58 33.657648 -118.139148 139 9000ft 248kts
12-Oct-19 08:59 33.606290 -118.084855 139 9003ft 245kts
12-Oct-19 09:00 33.553993 -118.029665 138 9000ft 252kts
12-Oct-19 09:01 33.500712 -117.973516 139 9000ft 253kts
12-Oct-19 09:02 33.447480 -117.917500 139 8999ft 254kts
12-Oct-19 09:03 33.394307 -117.861637 138 8999ft 254kts
12-Oct-19 09:04 33.340927 -117.805656 138 8999ft 254kts
12-Oct-19 09:05 33.288334 -117.748758 122 8967ft 255kts
12-Oct-19 09:06 33.258089 -117.672877 121 9001ft 254kts
12-Oct-19 09:07 33.221440 -117.599971 121 8998ft 255kts
12-Oct-19 09:08 33.184675 -117.526819 121 8989ft 256kts
12-Oct-19 09:09 33.147938 -117.453632 121 8999ft 255kts
12-Oct-19 09:10 33.111125 -117.380424 121 8983ft 256kts
12-Oct-19 09:11 33.074499 -117.307379 121 8999ft 255kts
12-Oct-19 09:12 33.039206 -117.234503 106 8975ft 256kts
12-Oct-19 09:13 33.057584 -117.154889 71 7995ft 248kts
12-Oct-19 09:14 33.079156 -117.077174 81 6747ft 243kts
12-Oct-19 09:15 33.090078 -116.998707 81 5874ft 220kts
12-Oct-19 09:16 33.099182 -116.932613 81 4994ft 193kts
12-Oct-19 09:17 33.107694 -116.868826 81 5001ft 196kts
12-Oct-19 09:18 33.136860 -116.827978 331 5003ft 201kts
12-Oct-19 09:19 33.154028 -116.890148 281 5002ft 204kts
12-Oct-19 09:20 33.165247 -116.954878 281 4345ft 197kts
12-Oct-19 09:21 33.171882 -117.016893 257 4198ft 183kts
12-Oct-19 09:22 33.161489 -117.075415 259 3907ft 170kts
12-Oct-19 09:23 33.152919 -117.127869 259 2892ft 150kts
12-Oct-19 09:24 33.146329 -117.168469 261 2241ft 106kts
12-Oct-19 09:25 33.140933 -117.201726 260 1610ft 90kts
12-Oct-19 09:26 33.136730 -117.227900 263 1175ft 77kts
12-Oct-19 09:27 33.132522 -117.253296 263 738ft 81kts
12-Oct-19 09:28 33.128810 -117.276855 259 334ft 40kts
12-Oct-19 09:29 33.127553 -117.279418 95 334ft 0kts
12-Oct-19 09:30 33.127550 -117.279381 93 334ft 3kts
12-Oct-19 09:31 33.127108 -117.277271 172 334ft 7kts
12-Oct-19 09:32 33.127113 -117.276963 52 334ft 0kts
12-Oct-19 09:33 33.127113 -117.276963 52 334ft 0kts

Navigation Log

Ident Type
Flight plan parsing failed, navigation log unavailable